TAF Text Data
IDs:
Format:
Raw Decoded Include METAR

Data at: 1047 UTC 25 Oct 2020

METAR for:KRYW (Lago Vista/Allen Arp, TX, US)
Text:KRYW 251035Z AUTO 16006KT 10SM CLR 13/10 A2993 RMK AO2 T01300096
Temperature: 13.0°C ( 55°F)
Dewpoint: 9.6°C ( 49°F) [RH = 80%]
Pressure (altimeter):29.93 inches Hg (1013.6 mb)
Winds:from the SSE (160 degrees) at 7 MPH (6 knots; 3.1 m/s)
Visibility:10 or more sm (16+ km)
Ceiling:at least 12,000 feet AGL
Clouds:sky clear below 12,000 feet AGL
QC Flag:automated observation with no human augmentation

TAF for:KRYW (Lago Vista/Allen Arp, TX, US)
Text:No data found